Time;durP1;ratioP1;P1;durP2;ratioP2;P2;SDS_P1;SDS_P2;PMS_P1;PMS_P2;Temp;Humidity;BMP_temperature;BMP_pressure;BME280_temperature;BME280_humidity;BME280_pressure;Samples;Min_cycle;Max_cycle;Signal;HPM_P1;HPM_P2
2021/08/26 00:00:28;;;;;;;14.57;12.77;;;;;;;;;;5035158;28;20428;-48
2021/08/26 00:05:50;;;;;;;17.73;13.93;;;;;;;;;;5035820;28;20409;-48
2021/08/26 00:08:17;;;;;;;21.23;16.60;;;;;;;;;;5035753;28;20429;-47
2021/08/26 00:10:43;;;;;;;19.30;15.10;;;;;;;;;;5034624;28;20771;-46
2021/08/26 00:13:11;;;;;;;17.70;14.63;;;;;;;;;;5035523;28;20424;-46
2021/08/26 00:15:37;;;;;;;20.97;14.73;;;;;;;;;;5035671;28;20399;-45
2021/08/26 00:18:04;;;;;;;18.77;15.10;;;;;;;;;;5035591;28;20476;-47
2021/08/26 00:20:30;;;;;;;21.20;16.53;;;;;;;;;;5034803;28;20422;-49
2021/08/26 00:22:56;;;;;;;17.23;13.57;;;;;;;;;;5035445;28;20443;-49
2021/08/26 00:25:22;;;;;;;17.87;14.60;;;;;;;;;;5035607;28;20376;-48
2021/08/26 00:27:48;;;;;;;16.97;15.13;;;;;;;;;;5035338;28;20465;-48
2021/08/26 00:30:14;;;;;;;19.63;15.90;;;;;;;;;;5034832;28;20422;-47
2021/08/26 00:32:40;;;;;;;18.57;15.17;;;;;;;;;;5034991;28;20460;-47
2021/08/26 00:35:06;;;;;;;16.80;14.37;;;;;;;;;;5035456;28;20380;-48
2021/08/26 00:37:32;;;;;;;17.33;14.77;;;;;;;;;;5035106;28;20394;-48
2021/08/26 00:39:58;;;;;;;19.10;14.97;;;;;;;;;;5034895;28;20548;-49
2021/08/26 00:42:24;;;;;;;21.30;16.60;;;;;;;;;;5034547;28;20397;-49
2021/08/26 00:44:50;;;;;;;20.30;16.57;;;;;;;;;;5035055;28;20386;-49
2021/08/26 00:47:16;;;;;;;19.37;14.93;;;;;;;;;;5034904;28;20494;-49
2021/08/26 00:49:42;;;;;;;20.33;12.97;;;;;;;;;;5033290;28;20534;-48
2021/08/26 00:52:11;;;;;;;19.53;15.20;;;;;;;;;;5034349;28;20409;-50
2021/08/26 00:54:38;;;;;;;19.63;13.87;;;;;;;;;;5034856;28;20377;-47
2021/08/26 00:57:04;;;;;;;19.07;13.67;;;;;;;;;;5034802;28;20809;-48
2021/08/26 00:59:31;;;;;;;17.70;13.80;;;;;;;;;;5034525;28;20519;-48
2021/08/26 01:02:00;;;;;;;22.60;16.40;;;;;;;;;;5033323;28;20790;-50
2021/08/26 01:04:34;;;;;;;19.63;14.40;;;;;;;;;;5034134;28;20388;-48
2021/08/26 01:07:08;;;;;;;17.40;13.70;;;;;;;;;;5034644;28;20447;-50
2021/08/26 01:09:42;;;;;;;16.60;13.03;;;;;;;;;;5034344;28;20839;-49
2021/08/26 01:12:09;;;;;;;17.00;12.27;;;;;;;;;;5033984;28;20504;-49
2021/08/26 01:14:36;;;;;;;18.43;13.73;;;;;;;;;;5034317;28;20379;-48
2021/08/26 01:17:02;;;;;;;17.97;13.77;;;;;;;;;;5034452;28;20404;-49
2021/08/26 01:19:28;;;;;;;14.90;11.70;;;;;;;;;;5034244;28;20423;-49
2021/08/26 01:21:54;;;;;;;13.67;10.03;;;;;;;;;;5016026;28;20509;-48
2021/08/26 01:24:21;;;;;;;14.67;10.23;;;;;;;;;;5034356;28;20414;-48
2021/08/26 01:26:50;;;;;;;13.70;9.60;;;;;;;;;;5034241;28;20404;-49
2021/08/26 01:29:17;;;;;;;7.63;6.83;;;;;;;;;;5034309;28;20463;-48
2021/08/26 01:31:43;;;;;;;9.70;6.50;;;;;;;;;;5033570;28;20409;-49
2021/08/26 01:34:09;;;;;;;5.93;5.43;;;;;;;;;;5034115;28;20466;-49
2021/08/26 01:36:36;;;;;;;6.00;5.20;;;;;;;;;;5033731;28;20469;-48
2021/08/26 01:39:03;;;;;;;7.80;6.10;;;;;;;;;;5033828;28;20436;-50
2021/08/26 01:41:44;;;;;;;5.77;5.30;;;;;;;;;;5033453;28;20773;-49
2021/08/26 01:44:11;;;;;;;9.17;5.20;;;;;;;;;;5034067;28;20391;-50
2021/08/26 01:46:38;;;;;;;5.33;4.03;;;;;;;;;;5033822;28;20410;-46
2021/08/26 01:49:04;;;;;;;4.00;3.23;;;;;;;;;;5033826;28;20429;-49
2021/08/26 01:51:30;;;;;;;4.67;4.13;;;;;;;;;;5033698;28;20865;-48
2021/08/26 01:53:56;;;;;;;8.10;3.30;;;;;;;;;;5033774;28;20378;-48
2021/08/26 01:56:22;;;;;;;4.33;3.40;;;;;;;;;;5033565;28;20878;-49
2021/08/26 01:58:48;;;;;;;5.50;3.33;;;;;;;;;;5033402;28;20438;-49
2021/08/26 02:01:14;;;;;;;4.00;3.27;;;;;;;;;;5033081;28;20389;-49
2021/08/26 02:03:40;;;;;;;5.63;3.50;;;;;;;;;;5033536;28;20406;-49
2021/08/26 02:06:06;;;;;;;3.30;3.00;;;;;;;;;;5033622;28;20402;-49
2021/08/26 02:08:33;;;;;;;5.77;4.03;;;;;;;;;;5033366;28;20454;-50
2021/08/26 02:10:59;;;;;;;5.37;3.50;;;;;;;;;;5032516;28;20446;-48
2021/08/26 02:13:25;;;;;;;10.47;3.20;;;;;;;;;;5033458;28;20430;-47
2021/08/26 02:15:50;;;;;;;4.40;3.20;;;;;;;;;;5033311;28;20411;-47
2021/08/26 02:18:16;;;;;;;6.47;3.53;;;;;;;;;;5033391;28;20398;-49
2021/08/26 02:20:42;;;;;;;8.40;3.23;;;;;;;;;;5031979;28;20505;-49
2021/08/26 02:23:08;;;;;;;4.50;4.10;;;;;;;;;;5033218;28;20856;-49
2021/08/26 02:25:34;;;;;;;4.90;3.73;;;;;;;;;;5032958;28;20417;-49
2021/08/26 02:28:00;;;;;;;3.93;3.43;;;;;;;;;;5033040;28;20436;-49
2021/08/26 02:30:26;;;;;;;7.07;4.20;;;;;;;;;;5032561;28;20502;-49
2021/08/26 02:32:52;;;;;;;9.30;4.00;;;;;;;;;;5032737;28;20369;-49
2021/08/26 02:35:18;;;;;;;7.00;3.93;;;;;;;;;;5032983;28;20373;-48
2021/08/26 02:37:44;;;;;;;6.53;3.70;;;;;;;;;;5032910;28;20384;-48
2021/08/26 02:40:10;;;;;;;4.63;3.23;;;;;;;;;;5033072;28;21016;-49
2021/08/26 02:42:36;;;;;;;6.77;3.87;;;;;;;;;;5032395;28;20465;-49
2021/08/26 02:45:03;;;;;;;7.90;3.77;;;;;;;;;;5032729;28;20810;-48
2021/08/26 02:47:29;;;;;;;6.60;3.57;;;;;;;;;;5032644;28;20442;-47
2021/08/26 02:49:55;;;;;;;7.17;3.60;;;;;;;;;;5032513;28;20877;-48
2021/08/26 02:52:21;;;;;;;6.07;3.83;;;;;;;;;;5032132;28;20468;-48
2021/08/26 02:54:47;;;;;;;10.10;4.37;;;;;;;;;;5032452;28;20795;-48
2021/08/26 02:57:12;;;;;;;9.37;4.40;;;;;;;;;;5032775;28;20425;-48
2021/08/26 02:59:39;;;;;;;7.23;4.20;;;;;;;;;;5032239;28;20423;-48
2021/08/26 03:02:04;;;;;;;9.10;3.93;;;;;;;;;;5031912;28;20377;-48
2021/08/26 03:04:30;;;;;;;6.80;3.93;;;;;;;;;;5032452;28;20757;-46
2021/08/26 03:06:56;;;;;;;4.30;3.90;;;;;;;;;;5032452;28;20369;-46
2021/08/26 03:09:22;;;;;;;7.83;3.47;;;;;;;;;;5031933;28;20443;-48
2021/08/26 03:11:48;;;;;;;6.87;3.77;;;;;;;;;;5031668;28;20400;-48
2021/08/26 03:14:14;;;;;;;9.97;4.17;;;;;;;;;;5032312;28;20529;-48
2021/08/26 03:16:40;;;;;;;10.33;3.73;;;;;;;;;;5032355;28;21014;-49
2021/08/26 03:19:06;;;;;;;6.43;3.93;;;;;;;;;;5031946;28;20983;-49
2021/08/26 03:21:32;;;;;;;8.40;4.90;;;;;;;;;;5031576;28;20392;-49
2021/08/26 03:23:58;;;;;;;7.60;4.20;;;;;;;;;;5032883;28;20500;-45
2021/08/26 03:26:24;;;;;;;5.93;3.87;;;;;;;;;;5032071;28;20431;-45
2021/08/26 03:28:50;;;;;;;8.03;3.97;;;;;;;;;;5031665;28;20454;-45
2021/08/26 03:31:16;;;;;;;10.50;4.30;;;;;;;;;;5030959;28;20373;-45
2021/08/26 03:33:42;;;;;;;9.10;4.67;;;;;;;;;;5032109;28;20409;-46
2021/08/26 03:36:08;;;;;;;6.90;3.80;;;;;;;;;;5031882;28;20486;-47
2021/08/26 03:38:34;;;;;;;8.73;4.00;;;;;;;;;;5032102;28;20830;-45
2021/08/26 03:41:00;;;;;;;6.50;4.13;;;;;;;;;;5031186;28;20501;-45
2021/08/26 03:43:26;;;;;;;9.37;4.23;;;;;;;;;;5031928;28;20384;-45
2021/08/26 03:45:52;;;;;;;11.43;4.43;;;;;;;;;;5031844;28;20409;-45
2021/08/26 03:48:18;;;;;;;8.30;4.53;;;;;;;;;;5031859;28;20935;-45
2021/08/26 03:50:44;;;;;;;12.43;4.67;;;;;;;;;;5030993;28;20482;-45
2021/08/26 03:53:10;;;;;;;6.73;4.00;;;;;;;;;;5031802;28;20856;-45
2021/08/26 03:55:36;;;;;;;13.40;4.80;;;;;;;;;;5031765;28;20369;-45
2021/08/26 03:58:02;;;;;;;10.30;4.60;;;;;;;;;;5031744;28;20381;-45
2021/08/26 04:00:28;;;;;;;12.73;4.10;;;;;;;;;;5031610;28;20425;-45
2021/08/26 04:02:54;;;;;;;7.20;4.00;;;;;;;;;;5031120;28;20407;-45
2021/08/26 04:05:20;;;;;;;10.63;4.40;;;;;;;;;;5031640;28;20406;-46
2021/08/26 04:07:46;;;;;;;7.90;4.40;;;;;;;;;;5031604;28;20427;-46
2021/08/26 04:10:12;;;;;;;8.80;4.30;;;;;;;;;;5031387;28;20422;-46
2021/08/26 04:12:38;;;;;;;11.53;4.13;;;;;;;;;;5031038;28;20490;-45
2021/08/26 04:15:04;;;;;;;8.20;4.17;;;;;;;;;;5031471;28;20915;-45
2021/08/26 04:17:30;;;;;;;8.13;4.27;;;;;;;;;;5031501;28;20893;-45
2021/08/26 04:19:56;;;;;;;5.67;4.10;;;;;;;;;;5031262;28;20521;-45
2021/08/26 04:22:22;;;;;;;13.90;4.43;;;;;;;;;;5031008;28;20416;-46
2021/08/26 04:24:48;;;;;;;10.13;4.17;;;;;;;;;;5031635;28;20599;-45
2021/08/26 04:27:14;;;;;;;15.83;4.17;;;;;;;;;;5031387;28;20456;-45
2021/08/26 04:29:40;;;;;;;14.60;4.17;;;;;;;;;;5031169;28;20409;-45
2021/08/26 04:32:06;;;;;;;8.87;4.43;;;;;;;;;;5030853;28;20437;-46
2021/08/26 04:34:32;;;;;;;8.40;4.27;;;;;;;;;;5031257;28;20376;-46
2021/08/26 04:36:58;;;;;;;10.67;4.70;;;;;;;;;;5031402;28;20384;-45
2021/08/26 04:39:24;;;;;;;10.47;4.40;;;;;;;;;;5031169;28;20455;-47
2021/08/26 04:41:50;;;;;;;8.60;4.50;;;;;;;;;;5030880;28;20471;-45
2021/08/26 04:44:16;;;;;;;9.53;4.03;;;;;;;;;;5033913;28;20385;-45
2021/08/26 04:46:42;;;;;;;6.23;4.17;;;;;;;;;;5034947;28;20421;-45
2021/08/26 04:49:08;;;;;;;10.40;4.43;;;;;;;;;;5034659;28;20436;-45
2021/08/26 04:51:34;;;;;;;11.63;4.63;;;;;;;;;;5034427;28;20735;-45
2021/08/26 04:54:00;;;;;;;7.90;4.00;;;;;;;;;;5035040;28;20381;-45
2021/08/26 04:56:26;;;;;;;11.23;4.43;;;;;;;;;;5034994;28;20376;-45
2021/08/26 04:58:52;;;;;;;9.03;4.47;;;;;;;;;;5034488;28;20393;-45
2021/08/26 05:01:18;;;;;;;18.30;4.63;;;;;;;;;;5034250;28;20453;-45
2021/08/26 05:03:44;;;;;;;10.40;5.00;;;;;;;;;;5034609;28;20745;-47
2021/08/26 05:06:10;;;;;;;10.50;4.50;;;;;;;;;;5034663;28;20843;-45
2021/08/26 05:08:36;;;;;;;14.57;5.83;;;;;;;;;;5034508;28;20482;-47
2021/08/26 05:11:02;;;;;;;12.27;5.43;;;;;;;;;;5033535;28;20474;-45
2021/08/26 05:13:28;;;;;;;12.73;4.03;;;;;;;;;;5034444;28;20422;-45
2021/08/26 05:15:54;;;;;;;8.57;4.10;;;;;;;;;;5034473;28;20383;-45
2021/08/26 05:18:20;;;;;;;7.80;4.43;;;;;;;;;;5034368;28;20917;-45
2021/08/26 05:20:46;;;;;;;9.70;4.33;;;;;;;;;;5033852;28;20479;-45
2021/08/26 05:23:12;;;;;;;12.03;4.07;;;;;;;;;;5034080;28;20410;-45
2021/08/26 05:25:38;;;;;;;10.43;4.20;;;;;;;;;;5033790;28;20406;-45
2021/08/26 05:28:04;;;;;;;11.13;4.60;;;;;;;;;;5033779;28;20783;-46
2021/08/26 05:30:30;;;;;;;8.77;4.43;;;;;;;;;;5033980;28;20393;-45
2021/08/26 05:32:57;;;;;;;8.63;4.33;;;;;;;;;;5033548;28;20379;-45
2021/08/26 05:35:23;;;;;;;13.10;4.47;;;;;;;;;;5033582;28;20398;-45
2021/08/26 05:37:49;;;;;;;7.80;4.80;;;;;;;;;;5033648;28;20780;-45
2021/08/26 05:40:15;;;;;;;11.60;4.17;;;;;;;;;;5033131;28;20403;-46
2021/08/26 05:42:41;;;;;;;15.37;4.70;;;;;;;;;;5050006;28;20388;-45
2021/08/26 05:45:07;;;;;;;15.10;4.70;;;;;;;;;;5033860;28;20377;-46
2021/08/26 05:47:34;;;;;;;10.93;4.50;;;;;;;;;;5034010;28;20525;-46
2021/08/26 05:50:00;;;;;;;18.33;5.00;;;;;;;;;;5033713;28;20811;-44
2021/08/26 05:52:25;;;;;;;10.20;4.10;;;;;;;;;;5033656;28;20373;-46
2021/08/26 05:54:51;;;;;;;7.57;4.70;;;;;;;;;;5032320;28;20399;-46
2021/08/26 05:57:17;;;;;;;8.97;4.27;;;;;;;;;;5032448;28;20381;-45
2021/08/26 05:59:43;;;;;;;11.20;4.10;;;;;;;;;;5032607;28;20474;-46
2021/08/26 06:02:09;;;;;;;10.73;4.27;;;;;;;;;;5032409;28;20931;-45
2021/08/26 06:04:35;;;;;;;13.70;3.90;;;;;;;;;;5033335;28;20373;-45
2021/08/26 06:07:01;;;;;;;15.30;4.10;;;;;;;;;;5033324;28;20801;-45
2021/08/26 06:09:27;;;;;;;11.40;3.70;;;;;;;;;;5033096;28;20457;-45
2021/08/26 06:11:53;;;;;;;13.97;4.67;;;;;;;;;;5032911;28;20509;-46
2021/08/26 06:14:19;;;;;;;11.07;4.13;;;;;;;;;;5033509;28;20398;-46
2021/08/26 06:16:45;;;;;;;14.97;5.30;;;;;;;;;;5033280;28;20381;-47
2021/08/26 06:19:11;;;;;;;6.33;3.50;;;;;;;;;;5033168;28;20971;-45
2021/08/26 06:21:37;;;;;;;9.40;3.90;;;;;;;;;;5032869;28;20459;-46
2021/08/26 06:24:06;;;;;;;7.83;3.70;;;;;;;;;;5033240;28;20410;-46
2021/08/26 06:26:33;;;;;;;11.53;3.87;;;;;;;;;;5033548;28;20373;-45
2021/08/26 06:28:58;;;;;;;11.43;3.47;;;;;;;;;;5032893;28;20453;-45
2021/08/26 06:31:24;;;;;;;10.83;3.47;;;;;;;;;;5032514;28;20372;-45
2021/08/26 06:33:50;;;;;;;4.50;2.40;;;;;;;;;;5033116;28;20464;-45
2021/08/26 06:36:16;;;;;;;6.50;2.53;;;;;;;;;;5033084;28;20403;-45
2021/08/26 06:38:42;;;;;;;4.50;2.80;;;;;;;;;;5032815;28;20381;-46
2021/08/26 06:41:09;;;;;;;10.33;3.10;;;;;;;;;;5032249;28;20488;-47
2021/08/26 06:43:35;;;;;;;9.87;2.93;;;;;;;;;;5032996;28;20377;-45
2021/08/26 06:46:01;;;;;;;11.13;3.30;;;;;;;;;;5032763;28;20916;-45
2021/08/26 06:48:27;;;;;;;9.03;3.03;;;;;;;;;;5032684;28;20428;-46
2021/08/26 06:50:53;;;;;;;5.63;2.37;;;;;;;;;;5032204;28;20459;-45
2021/08/26 06:53:19;;;;;;;11.83;4.73;;;;;;;;;;5032560;28;20481;-45
2021/08/26 06:55:45;;;;;;;4.40;3.07;;;;;;;;;;5032722;28;20401;-45
2021/08/26 06:58:11;;;;;;;6.67;3.63;;;;;;;;;;5032664;28;20403;-45
2021/08/26 07:00:37;;;;;;;9.57;3.87;;;;;;;;;;5032220;28;20453;-45
2021/08/26 07:03:03;;;;;;;22.63;7.40;;;;;;;;;;5032086;28;20445;-45
2021/08/26 07:05:29;;;;;;;6.60;2.97;;;;;;;;;;5032668;28;20505;-45
2021/08/26 07:07:55;;;;;;;6.87;3.60;;;;;;;;;;5032319;28;21003;-45
2021/08/26 07:10:21;;;;;;;15.50;3.67;;;;;;;;;;5032197;28;20805;-45
2021/08/26 07:12:47;;;;;;;16.83;3.47;;;;;;;;;;5031821;28;20399;-45
2021/08/26 07:15:13;;;;;;;9.83;3.40;;;;;;;;;;5032225;28;20405;-45
2021/08/26 07:17:39;;;;;;;10.23;4.33;;;;;;;;;;5032295;28;20979;-46
2021/08/26 07:20:06;;;;;;;10.43;3.30;;;;;;;;;;5032046;28;20900;-46
2021/08/26 07:22:32;;;;;;;17.57;4.50;;;;;;;;;;5031748;28;20461;-45
2021/08/26 07:24:58;;;;;;;13.10;4.60;;;;;;;;;;5032216;28;20832;-46
2021/08/26 07:27:24;;;;;;;10.40;3.53;;;;;;;;;;5032041;28;20415;-46
2021/08/26 07:29:49;;;;;;;8.50;3.70;;;;;;;;;;5039302;28;20412;-46
2021/08/26 07:32:15;;;;;;;12.07;4.47;;;;;;;;;;5031607;28;20491;-45
2021/08/26 07:34:42;;;;;;;15.13;5.17;;;;;;;;;;5032161;28;20369;-45
2021/08/26 07:37:07;;;;;;;11.33;3.30;;;;;;;;;;5031999;28;20487;-45
2021/08/26 07:39:33;;;;;;;11.00;3.23;;;;;;;;;;5031794;28;20515;-45
2021/08/26 07:41:59;;;;;;;9.23;3.47;;;;;;;;;;5031439;28;20403;-46
2021/08/26 07:44:25;;;;;;;13.77;3.83;;;;;;;;;;5031762;28;20864;-46
2021/08/26 07:46:51;;;;;;;11.60;3.70;;;;;;;;;;5031885;28;20454;-46
2021/08/26 07:49:17;;;;;;;12.03;2.83;;;;;;;;;;5031589;28;20464;-47
2021/08/26 07:51:43;;;;;;;7.07;3.00;;;;;;;;;;5031372;28;20743;-46
2021/08/26 07:54:09;;;;;;;12.30;3.50;;;;;;;;;;5031707;28;20446;-46
2021/08/26 07:56:38;;;;;;;12.30;3.57;;;;;;;;;;5031799;28;20397;-47
2021/08/26 07:59:04;;;;;;;6.50;3.53;;;;;;;;;;5031512;28;20848;-45
2021/08/26 08:01:30;;;;;;;6.60;2.80;;;;;;;;;;5031234;28;20473;-46
2021/08/26 08:03:56;;;;;;;14.00;3.27;;;;;;;;;;5031722;28;20397;-46
2021/08/26 08:06:22;;;;;;;5.23;3.17;;;;;;;;;;5031609;28;20392;-45
2021/08/26 08:08:48;;;;;;;9.20;3.50;;;;;;;;;;5031815;28;20884;-45
2021/08/26 08:11:15;;;;;;;7.00;2.90;;;;;;;;;;5031003;28;20399;-45
2021/08/26 08:13:41;;;;;;;5.43;3.20;;;;;;;;;;5031577;28;20393;-46
2021/08/26 08:16:07;;;;;;;5.43;3.77;;;;;;;;;;5031512;28;20378;-46
2021/08/26 08:18:33;;;;;;;6.67;4.00;;;;;;;;;;5030603;28;20411;-46
2021/08/26 08:21:02;;;;;;;7.17;4.07;;;;;;;;;;5035283;28;20507;-45
2021/08/26 08:23:28;;;;;;;6.53;3.93;;;;;;;;;;5034783;28;20393;-45
2021/08/26 08:25:54;;;;;;;12.10;4.70;;;;;;;;;;5032882;28;20418;-47
2021/08/26 08:28:20;;;;;;;6.20;3.60;;;;;;;;;;5035470;28;20511;-45
2021/08/26 08:30:47;;;;;;;13.13;4.03;;;;;;;;;;5034990;28;20414;-45
2021/08/26 08:33:13;;;;;;;5.37;3.47;;;;;;;;;;5034769;28;20370;-45
2021/08/26 08:35:39;;;;;;;11.57;3.40;;;;;;;;;;5035229;28;20433;-45
2021/08/26 08:38:05;;;;;;;6.97;3.43;;;;;;;;;;5035074;28;20378;-44
2021/08/26 08:40:31;;;;;;;15.67;3.93;;;;;;;;;;5034762;28;20497;-45
2021/08/26 08:42:58;;;;;;;11.50;3.83;;;;;;;;;;5034678;28;20399;-45
2021/08/26 08:45:24;;;;;;;7.10;3.27;;;;;;;;;;5035013;28;20762;-45
2021/08/26 08:47:50;;;;;;;5.67;3.50;;;;;;;;;;5034878;28;20451;-45
2021/08/26 08:50:16;;;;;;;7.83;3.37;;;;;;;;;;5034588;28;20402;-45
2021/08/26 08:52:42;;;;;;;10.87;5.67;;;;;;;;;;5034662;28;20381;-45
2021/08/26 08:55:10;;;;;;;14.77;5.80;;;;;;;;;;5034648;28;20783;-45
2021/08/26 08:57:36;;;;;;;10.43;6.33;;;;;;;;;;5034844;28;20406;-45
2021/08/26 09:00:05;;;;;;;12.80;6.40;;;;;;;;;;5035101;28;20777;-45
2021/08/26 09:02:31;;;;;;;10.10;5.90;;;;;;;;;;5034247;28;20379;-45
2021/08/26 09:04:58;;;;;;;11.70;6.10;;;;;;;;;;5034708;28;20451;-45
2021/08/26 09:07:31;;;;;;;11.37;7.10;;;;;;;;;;5034385;28;20441;-45
2021/08/26 09:09:58;;;;;;;10.73;6.00;;;;;;;;;;5034599;28;20398;-46
2021/08/26 09:12:42;;;;;;;11.30;6.07;;;;;;;;;;5033805;28;20924;-45
2021/08/26 09:15:08;;;;;;;7.10;6.10;;;;;;;;;;5034174;28;20409;-46
2021/08/26 09:17:34;;;;;;;8.30;5.90;;;;;;;;;;5033615;28;20507;-45
2021/08/26 09:20:05;;;;;;;11.17;6.53;;;;;;;;;;5033760;28;20924;-45
2021/08/26 09:22:31;;;;;;;9.53;7.50;;;;;;;;;;5023836;28;20511;-46
2021/08/26 09:24:58;;;;;;;11.53;6.50;;;;;;;;;;5014245;28;20395;-45
2021/08/26 09:27:33;;;;;;;19.17;7.40;;;;;;;;;;5015102;28;20869;-49
2021/08/26 09:30:00;;;;;;;9.50;5.70;;;;;;;;;;5012849;28;20428;-49
2021/08/26 09:32:44;;;;;;;11.30;4.50;;;;;;;;;;5014307;28;20403;-49
2021/08/26 09:35:26;;;;;;;17.27;4.33;;;;;;;;;;5014172;28;20767;-48
2021/08/26 09:37:53;;;;;;;7.17;4.60;;;;;;;;;;5014364;28;20402;-49
2021/08/26 09:40:21;;;;;;;10.73;4.63;;;;;;;;;;5013961;28;20419;-47
2021/08/26 09:43:00;;;;;;;7.70;4.30;;;;;;;;;;5013666;28;20402;-49
2021/08/26 09:45:27;;;;;;;10.80;4.93;;;;;;;;;;5014422;28;20417;-50
2021/08/26 09:48:00;;;;;;;13.17;4.47;;;;;;;;;;5014046;28;20449;-50
2021/08/26 09:50:37;;;;;;;14.57;4.90;;;;;;;;;;5013689;28;20437;-48
2021/08/26 09:53:03;;;;;;;13.90;5.57;;;;;;;;;;5013591;28;20406;-49
2021/08/26 09:55:49;;;;;;;8.37;3.97;;;;;;;;;;5013696;28;20427;-49
2021/08/26 09:58:16;;;;;;;9.20;3.80;;;;;;;;;;5013878;28;20458;-49
2021/08/26 10:00:42;;;;;;;7.47;3.53;;;;;;;;;;5013883;28;20760;-50
2021/08/26 10:03:14;;;;;;;9.40;4.07;;;;;;;;;;5013413;28;20412;-50
2021/08/26 10:05:43;;;;;;;9.57;4.40;;;;;;;;;;5013841;28;20771;-50
2021/08/26 10:08:10;;;;;;;9.57;3.87;;;;;;;;;;5013605;28;20454;-49
2021/08/26 10:10:38;;;;;;;8.20;3.73;;;;;;;;;;5013243;28;20481;-48
2021/08/26 10:13:04;;;;;;;8.93;4.13;;;;;;;;;;5012966;28;20430;-48
2021/08/26 10:15:30;;;;;;;13.70;4.33;;;;;;;;;;5012896;28;20406;-46
2021/08/26 10:17:56;;;;;;;8.90;3.90;;;;;;;;;;5013627;28;20441;-50
2021/08/26 10:20:22;;;;;;;9.00;4.30;;;;;;;;;;5011779;28;20430;-48
2021/08/26 10:22:48;;;;;;;8.10;3.37;;;;;;;;;;5012641;28;20419;-49
2021/08/26 10:25:15;;;;;;;12.97;4.50;;;;;;;;;;5013222;28;20887;-47
2021/08/26 10:27:41;;;;;;;8.03;4.47;;;;;;;;;;5013414;28;20403;-48
2021/08/26 10:30:07;;;;;;;12.33;4.40;;;;;;;;;;5013254;28;20423;-48
2021/08/26 10:32:33;;;;;;;12.43;4.50;;;;;;;;;;5012745;28;20423;-49
2021/08/26 10:35:19;;;;;;;11.47;5.10;;;;;;;;;;5013169;28;20404;-49
2021/08/26 10:37:54;;;;;;;6.70;4.53;;;;;;;;;;5012975;28;20421;-49
2021/08/26 10:40:26;;;;;;;10.17;4.37;;;;;;;;;;5012972;28;20949;-49
2021/08/26 10:42:52;;;;;;;10.73;4.90;;;;;;;;;;5011144;28;20422;-49
2021/08/26 10:45:26;;;;;;;9.93;5.10;;;;;;;;;;5013031;28;20408;-50
2021/08/26 10:47:53;;;;;;;14.40;4.60;;;;;;;;;;5013105;28;20459;-48
2021/08/26 10:50:20;;;;;;;12.80;4.30;;;;;;;;;;5013012;28;20424;-48
2021/08/26 10:53:06;;;;;;;10.80;4.80;;;;;;;;;;5012477;28;20817;-50
2021/08/26 10:55:31;;;;;;;8.50;4.30;;;;;;;;;;5012920;28;20458;-49
2021/08/26 10:58:16;;;;;;;11.13;4.37;;;;;;;;;;5012904;28;20806;-50
2021/08/26 11:00:45;;;;;;;12.00;4.43;;;;;;;;;;5012551;28;20954;-50
2021/08/26 11:03:31;;;;;;;9.80;6.03;;;;;;;;;;5012328;28;20936;-48
2021/08/26 11:05:57;;;;;;;10.50;5.00;;;;;;;;;;5012728;28;20466;-50
2021/08/26 11:08:30;;;;;;;7.10;4.07;;;;;;;;;;5012476;28;20554;-50
2021/08/26 11:10:56;;;;;;;10.53;4.93;;;;;;;;;;5012307;28;20529;-49
2021/08/26 11:13:27;;;;;;;7.43;4.23;;;;;;;;;;5012066;28;20415;-48
2021/08/26 11:15:53;;;;;;;7.10;3.70;;;;;;;;;;5012724;28;20497;-50
2021/08/26 11:18:31;;;;;;;9.17;3.50;;;;;;;;;;5013013;28;21012;-49
2021/08/26 11:20:58;;;;;;;7.63;3.90;;;;;;;;;;5012067;28;20813;-50
2021/08/26 11:23:47;;;;;;;10.63;4.73;;;;;;;;;;5011955;28;20816;-48
2021/08/26 11:26:32;;;;;;;11.13;4.47;;;;;;;;;;5012439;28;20445;-49
2021/08/26 11:29:20;;;;;;;11.63;4.80;;;;;;;;;;5012118;28;20517;-48
2021/08/26 11:31:55;;;;;;;9.50;3.87;;;;;;;;;;5011760;28;20411;-46
2021/08/26 11:34:40;;;;;;;10.40;3.90;;;;;;;;;;5012260;28;20917;-50
2021/08/26 11:37:07;;;;;;;17.90;5.00;;;;;;;;;;5012254;28;20642;-50
2021/08/26 11:39:38;;;;;;;8.97;4.77;;;;;;;;;;5011869;28;20853;-50
2021/08/26 11:42:05;;;;;;;13.33;4.13;;;;;;;;;;5011722;28;20762;-50
2021/08/26 11:44:31;;;;;;;12.77;4.30;;;;;;;;;;5012122;28;20400;-49
2021/08/26 11:46:59;;;;;;;8.90;4.00;;;;;;;;;;5012140;28;20407;-48
2021/08/26 11:49:34;;;;;;;8.80;3.77;;;;;;;;;;5011881;28;20554;-50
2021/08/26 11:52:04;;;;;;;8.70;3.97;;;;;;;;;;5011358;28;20401;-49
2021/08/26 11:54:35;;;;;;;7.17;2.93;;;;;;;;;;5011763;28;20858;-50
2021/08/26 11:57:01;;;;;;;11.30;3.97;;;;;;;;;;5012087;28;20410;-50
2021/08/26 11:59:28;;;;;;;8.43;3.60;;;;;;;;;;5011884;28;20864;-50
2021/08/26 12:02:13;;;;;;;8.27;3.30;;;;;;;;;;5011535;28;20414;-48
2021/08/26 12:04:39;;;;;;;4.63;3.30;;;;;;;;;;5011923;28;20417;-50
2021/08/26 12:07:05;;;;;;;10.43;3.10;;;;;;;;;;5012270;28;20771;-49
2021/08/26 12:09:31;;;;;;;7.83;3.63;;;;;;;;;;5011613;28;20470;-50
2021/08/26 12:11:57;;;;;;;9.77;3.23;;;;;;;;;;5011282;28;20560;-48
2021/08/26 12:14:24;;;;;;;9.07;4.53;;;;;;;;;;5011901;28;20402;-49
2021/08/26 12:16:50;;;;;;;8.73;4.53;;;;;;;;;;5011840;28;20402;-48
2021/08/26 12:19:16;;;;;;;9.63;4.07;;;;;;;;;;5011434;28;20505;-49
2021/08/26 12:21:42;;;;;;;10.40;4.37;;;;;;;;;;5011371;28;20518;-49
2021/08/26 12:24:09;;;;;;;6.50;3.63;;;;;;;;;;5011643;28;20919;-48
2021/08/26 12:26:38;;;;;;;10.70;3.80;;;;;;;;;;5011740;28;20433;-50
2021/08/26 12:29:04;;;;;;;6.77;2.93;;;;;;;;;;5011504;28;20508;-50
2021/08/26 12:31:36;;;;;;;10.23;3.50;;;;;;;;;;5011363;28;20813;-50
2021/08/26 12:34:02;;;;;;;6.73;3.70;;;;;;;;;;5011713;28;20399;-49
2021/08/26 12:36:29;;;;;;;7.43;4.20;;;;;;;;;;5011589;28;20810;-50
2021/08/26 12:38:55;;;;;;;7.30;4.13;;;;;;;;;;5011474;28;20405;-49
2021/08/26 12:41:25;;;;;;;7.67;4.03;;;;;;;;;;5011536;28;20410;-49
2021/08/26 12:43:55;;;;;;;12.43;3.70;;;;;;;;;;5015916;28;20960;-50
2021/08/26 12:46:23;;;;;;;6.17;4.33;;;;;;;;;;5039507;28;20440;-50
2021/08/26 12:48:49;;;;;;;11.13;4.40;;;;;;;;;;5034537;28;20457;-50
2021/08/26 12:51:23;;;;;;;6.70;3.67;;;;;;;;;;5030490;28;20408;-50
2021/08/26 12:54:11;;;;;;;8.23;3.47;;;;;;;;;;5029466;28;20401;-50
2021/08/26 12:56:40;;;;;;;9.83;3.30;;;;;;;;;;5029180;28;20401;-48
2021/08/26 12:59:07;;;;;;;6.20;3.40;;;;;;;;;;5030902;28;20406;-51
2021/08/26 13:01:34;;;;;;;7.60;3.40;;;;;;;;;;5030548;28;20456;-49
2021/08/26 13:04:01;;;;;;;10.00;3.37;;;;;;;;;;5026713;28;20415;-50
2021/08/26 13:06:37;;;;;;;11.13;3.20;;;;;;;;;;5015541;28;20415;-50
2021/08/26 13:09:11;;;;;;;6.60;2.80;;;;;;;;;;5014457;28;20516;-51
2021/08/26 13:11:38;;;;;;;7.47;3.60;;;;;;;;;;5014437;28;20400;-51
2021/08/26 13:14:04;;;;;;;8.33;3.20;;;;;;;;;;5014879;28;20407;-49
2021/08/26 13:16:30;;;;;;;10.20;3.23;;;;;;;;;;5014884;28;20465;-49
2021/08/26 13:18:56;;;;;;;4.63;3.00;;;;;;;;;;5014550;28;20910;-50
2021/08/26 13:21:22;;;;;;;8.70;3.27;;;;;;;;;;5014686;28;20411;-50
2021/08/26 13:23:48;;;;;;;9.03;3.80;;;;;;;;;;5013955;28;20400;-48
2021/08/26 13:26:14;;;;;;;10.90;4.60;;;;;;;;;;5014544;28;20469;-48
2021/08/26 13:28:40;;;;;;;10.20;4.43;;;;;;;;;;5014404;28;20780;-50
2021/08/26 13:31:07;;;;;;;10.70;4.23;;;;;;;;;;5014350;28;20434;-50
2021/08/26 13:33:33;;;;;;;7.00;3.80;;;;;;;;;;5014039;28;20403;-50
2021/08/26 13:35:59;;;;;;;16.57;4.83;;;;;;;;;;5014493;28;20398;-51
2021/08/26 13:38:25;;;;;;;5.67;2.80;;;;;;;;;;5014229;28;20432;-50
2021/08/26 13:40:51;;;;;;;6.20;3.63;;;;;;;;;;5013983;28;20996;-50
2021/08/26 13:43:17;;;;;;;3.20;2.90;;;;;;;;;;5027894;28;20852;-49
2021/08/26 13:45:44;;;;;;;5.53;3.00;;;;;;;;;;5035331;28;20416;-50
2021/08/26 13:48:10;;;;;;;6.93;3.27;;;;;;;;;;5033608;28;20983;-50
2021/08/26 13:50:37;;;;;;;6.30;3.20;;;;;;;;;;5033595;28;20509;-50
2021/08/26 13:53:03;;;;;;;5.10;2.60;;;;;;;;;;5015572;28;20445;-48
2021/08/26 13:55:32;;;;;;;9.90;3.37;;;;;;;;;;5033860;28;20830;-49
2021/08/26 13:57:58;;;;;;;5.20;2.73;;;;;;;;;;5032949;28;20442;-50
2021/08/26 14:00:27;;;;;;;11.60;3.50;;;;;;;;;;5033458;28;20959;-50
2021/08/26 14:02:53;;;;;;;4.37;2.70;;;;;;;;;;5033155;28;20420;-49
2021/08/26 14:05:19;;;;;;;8.77;3.60;;;;;;;;;;5033692;28;20408;-50
2021/08/26 14:07:45;;;;;;;5.90;3.13;;;;;;;;;;5033632;28;20405;-50
2021/08/26 14:10:12;;;;;;;6.87;2.90;;;;;;;;;;5033379;28;20517;-50
2021/08/26 14:12:38;;;;;;;6.03;2.57;;;;;;;;;;5032886;28;20418;-49
2021/08/26 14:15:05;;;;;;;7.57;2.80;;;;;;;;;;5033177;28;20394;-49
2021/08/26 14:17:31;;;;;;;3.77;2.80;;;;;;;;;;5032791;28;20406;-50
2021/08/26 14:19:57;;;;;;;6.60;2.50;;;;;;;;;;5033038;28;20783;-47
2021/08/26 14:22:23;;;;;;;12.03;4.07;;;;;;;;;;5032765;28;20408;-50
2021/08/26 14:24:49;;;;;;;6.43;3.00;;;;;;;;;;5033189;28;20408;-49
2021/08/26 14:27:16;;;;;;;10.80;3.17;;;;;;;;;;5033188;28;20410;-49
2021/08/26 14:29:42;;;;;;;3.83;2.63;;;;;;;;;;5032830;28;20515;-49
2021/08/26 14:32:08;;;;;;;5.13;2.60;;;;;;;;;;5032683;28;20428;-49
2021/08/26 14:34:34;;;;;;;6.30;3.30;;;;;;;;;;5032860;28;20443;-49
2021/08/26 14:37:00;;;;;;;6.07;2.80;;;;;;;;;;5033133;28;20485;-50
2021/08/26 14:39:26;;;;;;;5.00;2.90;;;;;;;;;;5032817;28;20422;-50